createdAt,value
2018-09-15T00:02:16.439Z,6.87
2018-09-15T00:04:44.232Z,6.93
2018-09-15T00:07:11.967Z,8.50
2018-09-15T00:09:39.644Z,6.97
2018-09-15T00:12:07.412Z,7.03
2018-09-15T00:14:35.129Z,6.90
2018-09-15T00:17:02.839Z,6.90
2018-09-15T00:19:30.591Z,6.90
2018-09-15T00:21:58.273Z,6.20
2018-09-15T00:24:26.186Z,7.10
2018-09-15T00:26:54.065Z,7.00
2018-09-15T00:29:21.744Z,8.40
2018-09-15T00:31:49.419Z,7.87
2018-09-15T00:34:17.140Z,6.63
2018-09-15T00:36:44.817Z,7.47
2018-09-15T00:39:12.546Z,6.40
2018-09-15T00:41:40.277Z,7.97
2018-09-15T00:44:08.163Z,6.83
2018-09-15T00:46:35.829Z,7.43
2018-09-15T00:49:03.786Z,7.17
2018-09-15T00:51:31.469Z,5.90
2018-09-15T00:53:59.210Z,5.93
2018-09-15T00:56:26.932Z,6.77
2018-09-15T00:58:54.642Z,7.53
2018-09-15T01:01:22.652Z,6.30
2018-09-15T01:03:50.370Z,6.50
2018-09-15T01:06:18.080Z,5.87
2018-09-15T01:08:45.801Z,5.77
2018-09-15T01:11:13.773Z,5.67
2018-09-15T01:13:41.654Z,5.50
2018-09-15T01:16:09.698Z,6.67
2018-09-15T01:18:37.419Z,5.90
2018-09-15T01:21:07.151Z,5.50
2018-09-15T01:23:55.749Z,4.97
2018-09-15T01:26:38.634Z,5.80
2018-09-15T01:29:06.567Z,6.20
2018-09-15T01:31:34.471Z,7.30
2018-09-15T01:34:02.290Z,6.77
2018-09-15T01:36:30.124Z,7.50
2018-09-15T01:38:58.223Z,6.10
2018-09-15T01:41:25.938Z,4.83
2018-09-15T01:44:00.878Z,6.20
2018-09-15T01:46:28.951Z,5.27
2018-09-15T01:48:56.628Z,4.40
2018-09-15T01:51:24.427Z,5.80
2018-09-15T01:53:52.160Z,5.60
2018-09-15T01:56:19.957Z,4.90
2018-09-15T01:58:47.966Z,5.33
2018-09-15T02:01:15.791Z,4.83
2018-09-15T02:03:43.583Z,4.33
2018-09-15T02:06:11.390Z,4.77
2018-09-15T02:08:39.091Z,5.63
2018-09-15T02:11:06.859Z,4.10
2018-09-15T02:13:34.667Z,4.70
2018-09-15T02:16:02.776Z,4.20
2018-09-15T02:18:30.551Z,4.80
2018-09-15T02:20:58.271Z,5.03
2018-09-15T02:23:26.072Z,4.70
2018-09-15T02:25:53.929Z,4.93
2018-09-15T02:28:22.257Z,4.47
2018-09-15T02:30:50.083Z,4.40
2018-09-15T02:33:17.775Z,4.47
2018-09-15T02:35:45.843Z,4.50
2018-09-15T02:38:13.855Z,5.12
2018-09-15T02:40:41.619Z,4.10
2018-09-15T02:43:09.463Z,4.43
2018-09-15T02:45:44.280Z,4.67
2018-09-15T02:48:12.003Z,4.70
2018-09-15T02:50:39.749Z,4.10
2018-09-15T02:53:07.469Z,4.43
2018-09-15T02:55:35.235Z,4.23
2018-09-15T02:58:02.979Z,4.30
2018-09-15T03:00:30.838Z,5.00
2018-09-15T03:02:58.679Z,4.43
2018-09-15T03:05:26.399Z,4.20
2018-09-15T03:07:54.163Z,3.80
2018-09-15T03:10:22.580Z,4.60
2018-09-15T03:12:50.319Z,4.57
2018-09-15T03:15:18.110Z,4.17
2018-09-15T03:17:46.125Z,4.00
2018-09-15T03:20:13.848Z,4.83
2018-09-15T03:22:41.608Z,4.67
2018-09-15T03:25:09.392Z,5.17
2018-09-15T03:27:37.086Z,5.43
2018-09-15T03:30:04.907Z,5.13
2018-09-15T03:32:32.714Z,5.60
2018-09-15T03:35:00.441Z,4.70
2018-09-15T03:37:28.280Z,5.33
2018-09-15T03:39:56.006Z,4.43
2018-09-15T03:42:23.775Z,4.27
2018-09-15T03:44:51.544Z,4.80
2018-09-15T03:47:19.487Z,4.43
2018-09-15T03:49:47.240Z,4.97
2018-09-15T03:52:15.017Z,5.20
2018-09-15T03:54:42.799Z,4.80
2018-09-15T03:57:10.546Z,4.00
2018-09-15T03:59:38.327Z,5.20
2018-09-15T04:02:06.119Z,4.93
2018-09-15T04:04:33.883Z,5.23
2018-09-15T04:07:01.647Z,4.97
2018-09-15T04:09:29.471Z,5.83
2018-09-15T04:11:57.185Z,5.77
2018-09-15T04:14:24.902Z,5.70
2018-09-15T04:16:52.670Z,5.10
2018-09-15T04:19:20.376Z,5.77
2018-09-15T04:21:48.127Z,6.03
2018-09-15T04:24:15.898Z,6.10
2018-09-15T04:26:43.665Z,6.00
2018-09-15T04:29:11.511Z,6.07
2018-09-15T04:31:39.232Z,6.33
2018-09-15T04:34:07.214Z,5.83
2018-09-15T04:36:35.001Z,5.87
2018-09-15T04:39:04.087Z,6.33
2018-09-15T04:41:31.854Z,6.80
2018-09-15T04:43:59.582Z,6.00
2018-09-15T04:46:27.317Z,6.23
2018-09-15T04:48:55.245Z,6.47
2018-09-15T04:51:23.328Z,5.33
2018-09-15T04:53:51.063Z,6.40
2018-09-15T04:56:18.774Z,5.53
2018-09-15T04:58:46.715Z,5.40
2018-09-15T05:01:14.477Z,5.87
2018-09-15T05:03:42.244Z,6.60
2018-09-15T05:06:10.197Z,6.80
2018-09-15T05:08:37.884Z,6.20
2018-09-15T05:11:05.720Z,6.57
2018-09-15T05:13:33.500Z,6.57
2018-09-15T05:16:01.203Z,6.43
2018-09-15T05:18:28.900Z,6.60
2018-09-15T05:20:56.663Z,7.40
2018-09-15T05:23:24.519Z,6.73
2018-09-15T05:25:52.394Z,6.97
2018-09-15T05:28:20.098Z,6.40
2018-09-15T05:30:47.866Z,6.20
2018-09-15T05:33:15.664Z,5.90
2018-09-15T05:35:43.382Z,6.13
2018-09-15T05:38:11.071Z,5.87
2018-09-15T05:40:38.883Z,6.17
2018-09-15T05:43:06.711Z,6.60
2018-09-15T05:45:34.419Z,6.43
2018-09-15T05:48:02.307Z,5.50
2018-09-15T05:50:30.023Z,5.07
2018-09-15T05:52:57.775Z,5.33
2018-09-15T05:55:25.535Z,5.27
2018-09-15T05:57:53.316Z,5.57
2018-09-15T06:00:21.544Z,5.10
2018-09-15T06:02:49.263Z,5.87
2018-09-15T06:05:17.044Z,5.40
2018-09-15T06:07:45.440Z,5.20
2018-09-15T06:10:13.146Z,5.37
2018-09-15T06:12:40.894Z,5.23
2018-09-15T06:15:08.792Z,5.80
2018-09-15T06:17:36.527Z,5.47
2018-09-15T06:20:04.640Z,6.13
2018-09-15T06:22:32.367Z,5.67
2018-09-15T06:25:00.090Z,5.30
2018-09-15T06:27:27.827Z,6.13
2018-09-15T06:29:55.908Z,5.00
2018-09-15T06:32:23.610Z,6.07
2018-09-15T06:34:51.339Z,5.57
2018-09-15T06:37:19.046Z,6.37
2018-09-15T06:39:46.774Z,5.70
2018-09-15T06:42:14.937Z,6.10
2018-09-15T06:44:42.646Z,5.27
2018-09-15T06:47:10.343Z,5.80
2018-09-15T06:49:38.159Z,5.57
2018-09-15T06:52:05.885Z,5.53
2018-09-15T06:54:33.668Z,5.53
2018-09-15T06:57:01.386Z,5.90
2018-09-15T06:59:29.139Z,5.93
2018-09-15T07:01:56.911Z,5.70
2018-09-15T07:04:24.635Z,5.47
2018-09-15T07:06:52.363Z,4.93
2018-09-15T07:09:20.123Z,5.43
2018-09-15T07:11:47.962Z,6.10
2018-09-15T07:14:15.712Z,6.30
2018-09-15T07:16:43.519Z,5.70
2018-09-15T07:19:11.239Z,5.90
2018-09-15T07:21:39.090Z,5.33
2018-09-15T07:24:06.923Z,5.83
2018-09-15T07:26:34.722Z,5.13
2018-09-15T07:29:02.817Z,5.40
2018-09-15T07:31:33.461Z,4.87
2018-09-15T07:34:01.178Z,4.60
2018-09-15T07:36:28.978Z,4.97
2018-09-15T07:38:56.887Z,5.10
2018-09-15T07:41:24.695Z,4.70
2018-09-15T07:43:52.844Z,5.07
2018-09-15T07:46:20.776Z,5.00
2018-09-15T07:48:48.591Z,4.67
2018-09-15T07:51:16.332Z,4.70
2018-09-15T07:53:44.171Z,4.90
2018-09-15T07:56:11.979Z,4.80
2018-09-15T07:58:39.932Z,4.80
2018-09-15T08:01:07.881Z,4.33
2018-09-15T08:03:37.031Z,3.70
2018-09-15T08:06:04.911Z,4.30
2018-09-15T08:08:32.683Z,4.63
2018-09-15T08:11:00.471Z,4.10
2018-09-15T08:13:28.291Z,4.07
2018-09-15T08:15:56.227Z,4.00
2018-09-15T08:18:23.933Z,4.17
2018-09-15T08:20:51.699Z,3.73
2018-09-15T08:23:19.454Z,3.97
2018-09-15T08:25:47.360Z,4.30
2018-09-15T08:28:15.376Z,4.50
2018-09-15T08:30:43.799Z,5.17
2018-09-15T08:33:11.521Z,4.50
2018-09-15T08:35:39.250Z,3.97
2018-09-15T08:38:07.024Z,3.83
2018-09-15T08:40:34.736Z,4.20
2018-09-15T08:43:02.707Z,4.03
2018-09-15T08:45:30.835Z,4.67
2018-09-15T08:47:58.560Z,4.17
2018-09-15T08:50:26.359Z,4.47
2018-09-15T08:52:54.052Z,4.17
2018-09-15T08:55:21.787Z,3.90
2018-09-15T08:57:49.801Z,3.63
2018-09-15T09:00:17.983Z,3.67
2018-09-15T09:02:46.445Z,4.43
2018-09-15T09:05:14.495Z,3.80
2018-09-15T09:07:42.265Z,4.80
2018-09-15T09:10:10.513Z,3.20
2018-09-15T09:12:38.222Z,3.30
2018-09-15T09:15:06.005Z,4.50
2018-09-15T09:17:33.727Z,4.20
2018-09-15T09:20:01.824Z,3.57
2018-09-15T09:22:29.627Z,3.57
2018-09-15T09:24:57.686Z,3.70
2018-09-15T09:27:25.533Z,4.77
2018-09-15T09:29:53.367Z,4.50
2018-09-15T09:32:21.209Z,3.87
2018-09-15T09:34:48.977Z,4.30
2018-09-15T09:37:16.865Z,4.13
2018-09-15T09:39:44.742Z,4.37
2018-09-15T09:42:12.540Z,5.10
2018-09-15T09:44:40.315Z,4.00
2018-09-15T09:47:08.196Z,4.27
2018-09-15T09:49:35.886Z,2.77
2018-09-15T09:52:04.534Z,3.87
2018-09-15T09:54:32.275Z,3.30
2018-09-15T09:56:59.981Z,3.47
2018-09-15T09:59:27.770Z,2.77
2018-09-15T10:02:02.346Z,3.00
2018-09-15T10:04:30.799Z,2.90
2018-09-15T10:06:58.636Z,2.83
2018-09-15T10:09:26.392Z,2.80
2018-09-15T10:11:54.135Z,2.97
2018-09-15T10:14:21.927Z,2.90
2018-09-15T10:16:49.634Z,2.60
2018-09-15T10:19:17.511Z,2.77
2018-09-15T10:21:45.222Z,2.80
2018-09-15T10:24:13.035Z,3.10
2018-09-15T10:26:40.844Z,3.20
2018-09-15T10:29:08.650Z,2.87
2018-09-15T10:31:36.488Z,2.87
2018-09-15T10:34:04.263Z,3.00
2018-09-15T10:36:31.999Z,3.00
2018-09-15T10:38:59.781Z,2.67
2018-09-15T10:41:27.585Z,2.87
2018-09-15T10:43:55.384Z,2.40
2018-09-15T10:46:23.195Z,2.00
2018-09-15T10:48:51.044Z,2.73
2018-09-15T10:51:18.879Z,3.07
2018-09-15T10:53:46.568Z,2.60
2018-09-15T10:56:14.384Z,2.00
2018-09-15T10:58:42.259Z,2.37
2018-09-15T11:01:09.998Z,1.70
2018-09-15T11:03:37.755Z,2.47
2018-09-15T11:06:05.511Z,2.40
2018-09-15T11:08:33.324Z,2.10
2018-09-15T11:11:01.202Z,2.60
2018-09-15T11:13:29.335Z,2.10
2018-09-15T11:16:03.787Z,2.00
2018-09-15T11:18:31.523Z,2.13
2018-09-15T11:20:59.427Z,2.20
2018-09-15T11:23:27.179Z,2.33
2018-09-15T11:25:54.919Z,1.83
2018-09-15T11:28:22.659Z,2.33
2018-09-15T11:30:50.487Z,2.07
2018-09-15T11:33:18.211Z,2.03
2018-09-15T11:35:46.019Z,2.37
2018-09-15T11:38:13.751Z,2.20
2018-09-15T11:40:41.515Z,2.10
2018-09-15T11:43:09.459Z,2.30
2018-09-15T11:45:37.559Z,2.20
2018-09-15T11:48:05.575Z,2.57
2018-09-15T11:50:33.482Z,2.47
2018-09-15T11:53:01.267Z,2.53
2018-09-15T11:55:29.090Z,2.07
2018-09-15T11:57:56.822Z,1.80
2018-09-15T12:00:27.040Z,1.90
2018-09-15T12:02:54.730Z,2.30
2018-09-15T12:05:22.826Z,2.10
2018-09-15T12:08:02.552Z,2.63
2018-09-15T12:10:30.423Z,2.47
2018-09-15T12:12:58.271Z,2.20
2018-09-15T12:15:26.145Z,2.43
2018-09-15T12:17:53.845Z,2.47
2018-09-15T12:20:21.661Z,2.30
2018-09-15T12:22:49.343Z,2.23
2018-09-15T12:25:17.215Z,2.70
2018-09-15T12:27:45.149Z,2.43
2018-09-15T12:30:12.843Z,2.10
2018-09-15T12:32:40.618Z,2.53
2018-09-15T12:35:08.407Z,2.30
2018-09-15T12:37:36.214Z,2.07
2018-09-15T12:40:04.334Z,2.40
2018-09-15T12:42:32.047Z,3.00
2018-09-15T12:45:00.066Z,2.23
2018-09-15T12:47:27.787Z,2.63
2018-09-15T12:49:55.543Z,13.27
2018-09-15T12:52:23.288Z,3.00
2018-09-15T12:54:50.967Z,20.60
2018-09-15T12:57:18.778Z,9.43
2018-09-15T12:59:46.500Z,34.47
2018-09-15T13:02:14.197Z,35.13
2018-09-15T13:04:41.987Z,3.83
2018-09-15T13:07:09.736Z,2.00
2018-09-15T13:09:37.564Z,1.70
2018-09-15T13:12:05.404Z,1.90
2018-09-15T13:14:33.108Z,2.20
2018-09-15T13:17:00.860Z,1.90
2018-09-15T13:19:28.598Z,2.00
2018-09-15T13:21:56.312Z,2.40
2018-09-15T13:24:24.043Z,4.47
2018-09-15T13:26:51.776Z,2.77
2018-09-15T13:29:19.599Z,2.10
2018-09-15T13:31:47.395Z,1.70
2018-09-15T13:34:15.175Z,1.80
2018-09-15T13:36:42.921Z,1.90
2018-09-15T13:39:14.699Z,1.80
2018-09-15T13:41:42.378Z,1.77
2018-09-15T13:44:10.099Z,2.90
2018-09-15T13:46:37.853Z,3.27
2018-09-15T13:49:06.140Z,2.03
2018-09-15T13:51:33.978Z,1.90
2018-09-15T13:54:01.690Z,1.90
2018-09-15T13:56:29.420Z,1.90
2018-09-15T13:58:57.398Z,1.50
2018-09-15T14:01:25.094Z,2.00
2018-09-15T14:03:52.855Z,1.80
2018-09-15T14:06:20.909Z,2.00
2018-09-15T14:08:48.865Z,1.60
2018-09-15T14:11:16.572Z,1.77
2018-09-15T14:13:44.308Z,1.77
2018-09-15T14:16:12.505Z,1.83
2018-09-15T14:18:40.280Z,1.43
2018-09-15T14:21:08.202Z,1.90
2018-09-15T14:23:35.902Z,1.60
2018-09-15T14:26:03.641Z,1.93
2018-09-15T14:28:31.485Z,1.90
2018-09-15T14:30:59.177Z,2.43
2018-09-15T14:34:01.625Z,2.00
2018-09-15T14:36:34.266Z,1.83
2018-09-15T14:39:03.339Z,1.93
2018-09-15T14:41:31.135Z,1.60
2018-09-15T14:47:02.082Z,2.00
2018-09-15T14:49:29.857Z,2.23
2018-09-15T14:51:57.578Z,1.93
2018-09-15T14:54:25.324Z,7.70
2018-09-15T14:56:53.015Z,7.23
2018-09-15T14:59:20.792Z,6.03
2018-09-15T15:01:48.587Z,13.23
2018-09-15T15:04:16.306Z,5.53
2018-09-15T15:06:44.073Z,8.23
2018-09-15T15:09:11.898Z,2.87
2018-09-15T15:11:39.971Z,1.90
2018-09-15T15:14:08.234Z,2.00
2018-09-15T15:16:35.977Z,1.80
2018-09-15T15:19:03.747Z,2.57
2018-09-15T15:21:31.772Z,2.10
2018-09-15T15:23:59.535Z,2.07
2018-09-15T15:26:27.361Z,1.70
2018-09-15T15:28:55.035Z,2.43
2018-09-15T15:31:22.828Z,1.83
2018-09-15T15:33:50.691Z,2.00
2018-09-15T15:36:18.407Z,2.40
2018-09-15T15:38:46.117Z,1.97
2018-09-15T15:41:13.880Z,1.90
2018-09-15T15:43:42.046Z,1.90
2018-09-15T15:46:09.831Z,1.70
2018-09-15T15:48:37.559Z,1.73
2018-09-15T15:51:05.308Z,1.87
2018-09-15T15:53:33.058Z,1.87
2018-09-15T15:56:00.784Z,1.80
2018-09-15T15:58:28.588Z,2.07
2018-09-15T16:00:56.209Z,2.00
2018-09-15T16:03:24.413Z,1.50
2018-09-15T16:05:52.137Z,1.80
2018-09-15T16:08:19.831Z,1.70
2018-09-15T16:10:47.576Z,1.73
2018-09-15T16:13:15.330Z,1.60
2018-09-15T16:15:43.261Z,1.87
2018-09-15T16:18:11.076Z,2.13
2018-09-15T16:20:38.802Z,1.70
2018-09-15T16:23:06.889Z,1.70
2018-09-15T16:25:34.663Z,1.77
2018-09-15T16:28:02.784Z,2.10
2018-09-15T16:30:30.629Z,1.30
2018-09-15T16:32:58.279Z,1.77
2018-09-15T16:35:26.149Z,2.00
2018-09-15T16:37:54.023Z,1.60
2018-09-15T16:40:21.967Z,1.70
2018-09-15T16:42:49.877Z,1.60
2018-09-15T16:45:17.750Z,1.90
2018-09-15T16:47:45.508Z,2.50
2018-09-15T16:50:13.504Z,2.70
2018-09-15T16:52:41.337Z,1.93
2018-09-15T16:55:09.276Z,2.10
2018-09-15T16:57:37.026Z,1.60
2018-09-15T17:00:04.915Z,1.60
2018-09-15T17:02:32.692Z,1.77
2018-09-15T17:05:00.839Z,2.03
2018-09-15T17:07:28.691Z,2.27
2018-09-15T17:09:56.584Z,2.00
2018-09-15T17:12:24.387Z,2.00
2018-09-15T17:14:52.182Z,1.53
2018-09-15T17:17:20.062Z,1.70
2018-09-15T17:19:47.834Z,1.50
2018-09-15T17:22:15.787Z,1.80
2018-09-15T17:24:43.504Z,1.43
2018-09-15T17:27:11.335Z,1.80
2018-09-15T17:29:39.121Z,1.50
2018-09-15T17:32:07.276Z,1.50
2018-09-15T17:34:35.139Z,1.70
2018-09-15T17:37:04.508Z,1.93
2018-09-15T17:39:32.328Z,2.30
2018-09-15T17:42:00.166Z,2.60
2018-09-15T17:44:27.910Z,2.30
2018-09-15T17:46:55.708Z,2.10
2018-09-15T17:49:23.744Z,2.50
2018-09-15T17:51:52.499Z,2.57
2018-09-15T17:54:20.293Z,2.40
2018-09-15T17:56:48.137Z,2.30
2018-09-15T17:59:16.128Z,2.40
2018-09-15T18:01:44.102Z,2.47
2018-09-15T18:04:11.880Z,2.43
2018-09-15T18:06:39.764Z,2.40
2018-09-15T18:09:08.410Z,2.40
2018-09-15T18:11:36.448Z,2.70
2018-09-15T18:14:04.223Z,3.27
2018-09-15T18:16:32.130Z,2.80
2018-09-15T18:18:59.970Z,3.57
2018-09-15T18:21:27.716Z,3.80
2018-09-15T18:23:55.593Z,3.03
2018-09-15T18:26:23.384Z,2.70
2018-09-15T18:28:51.159Z,2.80
2018-09-15T18:31:18.990Z,2.63
2018-09-15T18:33:46.832Z,2.40
2018-09-15T18:36:14.574Z,2.60
2018-09-15T18:38:42.335Z,2.90
2018-09-15T18:41:10.129Z,2.43
2018-09-15T18:43:37.962Z,3.00
2018-09-15T18:46:05.751Z,3.40
2018-09-15T18:48:33.561Z,3.20
2018-09-15T18:51:01.768Z,3.60
2018-09-15T18:53:29.731Z,3.40
2018-09-15T18:55:57.589Z,3.70
2018-09-15T18:58:25.407Z,3.17
2018-09-15T19:00:53.201Z,3.43
2018-09-15T19:03:21.054Z,3.20
2018-09-15T19:05:48.852Z,2.87
2018-09-15T19:08:16.647Z,3.30
2018-09-15T19:10:44.531Z,3.40
2018-09-15T19:13:12.607Z,3.53
2018-09-15T19:15:40.710Z,3.83
2018-09-15T19:18:08.471Z,4.00
2018-09-15T19:20:36.280Z,3.93
2018-09-15T19:23:04.318Z,3.40
2018-09-15T19:25:32.047Z,3.33
2018-09-15T19:28:00.051Z,3.27
2018-09-15T19:30:27.808Z,2.90
2018-09-15T19:32:55.532Z,2.33
2018-09-15T19:35:23.637Z,2.50
2018-09-15T19:37:51.327Z,2.80
2018-09-15T19:40:19.717Z,2.87
2018-09-15T19:42:47.476Z,3.27
2018-09-15T19:45:15.380Z,3.03
2018-09-15T19:47:43.391Z,2.60
2018-09-15T19:50:11.263Z,2.70
2018-09-15T19:52:39.095Z,2.23
2018-09-15T19:55:07.024Z,2.00
2018-09-15T19:57:35.016Z,2.83
2018-09-15T20:00:02.919Z,2.30
2018-09-15T20:02:30.689Z,2.50
2018-09-15T20:04:58.617Z,2.40
2018-09-15T20:07:26.384Z,2.60
2018-09-15T20:09:54.244Z,2.00
2018-09-15T20:12:22.116Z,2.00
2018-09-15T20:14:50.000Z,2.40
2018-09-15T20:17:16.414Z,2.23
2018-09-15T20:19:42.958Z,2.20
2018-09-15T20:22:10.716Z,2.10
2018-09-15T20:24:38.844Z,2.53
2018-09-15T20:27:06.640Z,2.80
2018-09-15T20:29:34.462Z,2.93
2018-09-15T20:32:02.486Z,2.80
2018-09-15T20:34:30.371Z,2.47
2018-09-15T20:36:58.228Z,2.40
2018-09-15T20:39:25.999Z,2.80
2018-09-15T20:41:53.888Z,2.43
2018-09-15T20:44:21.682Z,2.53
2018-09-15T20:46:49.651Z,2.77
2018-09-15T20:49:17.482Z,2.90
2018-09-15T20:51:45.246Z,3.43
2018-09-15T20:54:13.066Z,3.33
2018-09-15T20:56:40.969Z,2.90
2018-09-15T20:59:08.693Z,2.70
2018-09-15T21:01:37.064Z,3.07
2018-09-15T21:04:04.869Z,2.77
2018-09-15T21:06:32.608Z,2.97
2018-09-15T21:09:00.346Z,3.07
2018-09-15T21:11:28.067Z,2.90
2018-09-15T21:13:55.762Z,2.83
2018-09-15T21:16:23.511Z,2.80
2018-09-15T21:18:51.282Z,2.70
2018-09-15T21:21:18.971Z,3.20
2018-09-15T21:23:46.700Z,2.30
2018-09-15T21:26:14.408Z,2.70
2018-09-15T21:28:42.154Z,2.93
2018-09-15T21:31:09.887Z,2.70
2018-09-15T21:33:37.597Z,2.80
2018-09-15T21:36:05.828Z,2.90
2018-09-15T21:38:33.561Z,2.57
2018-09-15T21:41:01.314Z,3.07
2018-09-15T21:43:29.118Z,3.07
2018-09-15T21:45:56.959Z,2.87
2018-09-15T21:48:24.692Z,2.70
2018-09-15T21:50:52.447Z,2.73
2018-09-15T21:53:20.175Z,3.13
2018-09-15T21:55:47.912Z,3.20
2018-09-15T21:58:15.621Z,3.50
2018-09-15T22:00:43.423Z,2.90
2018-09-15T22:03:11.195Z,2.63
2018-09-15T22:05:38.963Z,2.67
2018-09-15T22:08:06.703Z,2.93
2018-09-15T22:10:34.553Z,2.63
2018-09-15T22:13:02.369Z,2.70
2018-09-15T22:15:30.078Z,2.70
2018-09-15T22:17:58.331Z,2.60
2018-09-15T22:20:26.411Z,2.87
2018-09-15T22:22:54.152Z,2.53
2018-09-15T22:25:21.983Z,2.70
2018-09-15T22:27:49.775Z,2.87
2018-09-15T22:30:17.663Z,2.87
2018-09-15T22:32:45.464Z,2.70
2018-09-15T22:35:13.182Z,2.70
2018-09-15T22:37:40.975Z,2.73
2018-09-15T22:40:09.870Z,2.93
2018-09-15T22:42:37.595Z,2.67
2018-09-15T22:45:05.786Z,2.70
2018-09-15T22:47:33.623Z,2.70
2018-09-15T22:50:01.636Z,2.53
2018-09-15T22:52:29.387Z,2.80
2018-09-15T22:54:57.151Z,2.50
2018-09-15T22:57:24.896Z,2.80
2018-09-15T22:59:53.024Z,2.83
2018-09-15T23:02:20.719Z,3.30
2018-09-15T23:04:48.450Z,3.23
2018-09-15T23:07:16.340Z,2.97
2018-09-15T23:09:44.127Z,2.60
2018-09-15T23:12:11.822Z,3.17
2018-09-15T23:14:39.528Z,3.00
2018-09-15T23:17:07.272Z,3.10
2018-09-15T23:19:35.034Z,3.23
2018-09-15T23:22:02.848Z,2.93
2018-09-15T23:24:30.667Z,2.83
2018-09-15T23:26:58.379Z,3.20
2018-09-15T23:29:26.174Z,3.40
2018-09-15T23:31:53.909Z,3.40
2018-09-15T23:34:21.774Z,3.10
2018-09-15T23:36:49.842Z,3.00
2018-09-15T23:39:17.671Z,3.00
2018-09-15T23:41:45.419Z,3.10
2018-09-15T23:44:13.466Z,3.30
2018-09-15T23:46:41.235Z,3.30
2018-09-15T23:49:09.052Z,3.47
2018-09-15T23:51:37.006Z,3.57
2018-09-15T23:54:04.710Z,2.97
2018-09-15T23:56:32.509Z,3.17
2018-09-15T23:59:00.226Z,3.10
